Time;durP1;ratioP1;P1;durP2;ratioP2;P2;SDS_P1;SDS_P2;PMS_P1;PMS_P2;Temp;Humidity;BMP_temperature;BMP_pressure;BME280_temperature;BME280_humidity;BME280_pressure;Samples;Min_cycle;Max_cycle;Signal;HPM_P1;HPM_P2
2023/10/23 00:01:13;;;;;;;1.48;0.32;;;;;;;;;;5120601;28;20075;-70
2023/10/23 00:03:41;;;;;;;1.27;0.32;;;;;;;;;;5120414;28;20350;-70
2023/10/23 00:06:08;;;;;;;1.58;0.30;;;;;;;;;;5120396;28;20043;-70
2023/10/23 00:08:34;;;;;;;1.02;0.35;;;;;;;;;;5120224;28;20043;-70
2023/10/23 00:11:01;;;;;;;1.27;0.50;;;;;;;;;;5120412;28;20205;-70
2023/10/23 00:13:28;;;;;;;1.90;0.47;;;;;;;;;;5120517;28;20047;-70
2023/10/23 00:15:55;;;;;;;1.15;0.50;;;;;;;;;;5120661;28;20043;-70
2023/10/23 00:18:21;;;;;;;2.90;0.85;;;;;;;;;;5120220;28;20078;-71
2023/10/23 00:20:48;;;;;;;0.98;0.30;;;;;;;;;;5120250;28;20073;-71
2023/10/23 00:23:15;;;;;;;2.70;0.45;;;;;;;;;;5120022;28;20050;-70
2023/10/23 00:25:42;;;;;;;2.45;0.55;;;;;;;;;;5120334;28;20061;-70
2023/10/23 00:28:08;;;;;;;5.50;0.63;;;;;;;;;;5123769;28;20168;-70
2023/10/23 00:30:35;;;;;;;2.92;0.32;;;;;;;;;;5124718;28;20066;-70
2023/10/23 00:33:03;;;;;;;0.63;0.30;;;;;;;;;;5124206;28;20055;-71
2023/10/23 00:35:29;;;;;;;1.77;0.32;;;;;;;;;;5124323;28;20050;-70
2023/10/23 00:37:56;;;;;;;3.13;0.47;;;;;;;;;;5124264;28;20100;-70
2023/10/23 00:40:23;;;;;;;1.25;0.40;;;;;;;;;;5124362;28;20111;-70
2023/10/23 00:42:49;;;;;;;3.53;0.60;;;;;;;;;;5123733;28;20069;-72
2023/10/23 00:45:16;;;;;;;2.30;0.40;;;;;;;;;;5124303;28;20466;-72
2023/10/23 00:47:43;;;;;;;1.35;0.43;;;;;;;;;;5124260;28;20074;-70
2023/10/23 00:50:10;;;;;;;1.42;0.50;;;;;;;;;;5124191;28;20107;-72
2023/10/23 00:52:37;;;;;;;1.38;0.40;;;;;;;;;;5123983;28;20043;-70
2023/10/23 00:55:04;;;;;;;2.15;0.50;;;;;;;;;;5123736;28;20044;-70
2023/10/23 00:57:31;;;;;;;2.47;0.47;;;;;;;;;;5123879;28;20106;-70
2023/10/23 00:59:59;;;;;;;1.75;0.50;;;;;;;;;;5123890;28;20044;-69
2023/10/23 01:02:25;;;;;;;2.53;0.38;;;;;;;;;;5123504;28;20053;-69
2023/10/23 01:04:52;;;;;;;4.22;0.52;;;;;;;;;;5124039;28;20089;-70
2023/10/23 01:07:19;;;;;;;1.50;0.40;;;;;;;;;;5123620;28;20335;-69
2023/10/23 01:09:46;;;;;;;1.02;0.40;;;;;;;;;;5123442;28;20046;-70
2023/10/23 01:12:12;;;;;;;2.05;0.47;;;;;;;;;;5121943;28;20089;-69
2023/10/23 01:14:39;;;;;;;1.80;0.60;;;;;;;;;;5121537;28;20043;-70
2023/10/23 01:17:06;;;;;;;2.47;0.50;;;;;;;;;;5123437;28;20097;-69
2023/10/23 01:19:33;;;;;;;2.35;0.40;;;;;;;;;;5123283;28;20081;-69
2023/10/23 01:22:00;;;;;;;0.70;0.20;;;;;;;;;;5123176;28;20114;-71
2023/10/23 01:24:32;;;;;;;2.53;0.50;;;;;;;;;;5123253;28;20204;-69
2023/10/23 01:26:59;;;;;;;1.30;0.43;;;;;;;;;;5123455;28;20106;-70
2023/10/23 01:29:25;;;;;;;2.05;0.47;;;;;;;;;;5123180;28;20111;-69
2023/10/23 01:31:52;;;;;;;4.28;0.60;;;;;;;;;;5123392;28;20115;-70
2023/10/23 01:34:19;;;;;;;1.38;0.40;;;;;;;;;;5122919;28;20079;-70
2023/10/23 01:36:46;;;;;;;2.90;0.43;;;;;;;;;;5123281;28;20125;-71
2023/10/23 01:39:12;;;;;;;3.25;0.60;;;;;;;;;;5122421;28;20047;-71
2023/10/23 01:41:39;;;;;;;3.53;0.60;;;;;;;;;;5123369;28;20043;-72
2023/10/23 01:44:06;;;;;;;2.35;0.43;;;;;;;;;;5123011;28;20050;-71
2023/10/23 01:46:33;;;;;;;2.60;0.73;;;;;;;;;;5123167;28;20298;-71
2023/10/23 01:48:59;;;;;;;2.47;0.40;;;;;;;;;;5122686;28;20205;-70
2023/10/23 01:51:26;;;;;;;2.63;0.52;;;;;;;;;;5122762;28;20044;-70
2023/10/23 01:53:54;;;;;;;1.98;0.47;;;;;;;;;;5122295;28;20370;-70
2023/10/23 01:56:21;;;;;;;2.33;0.60;;;;;;;;;;5122982;28;20036;-70
2023/10/23 01:58:48;;;;;;;2.67;0.50;;;;;;;;;;5122652;28;20320;-71
2023/10/23 02:01:24;;;;;;;2.60;0.70;;;;;;;;;;5122723;28;20111;-70
2023/10/23 02:03:51;;;;;;;4.20;0.65;;;;;;;;;;5122598;28;20048;-71
2023/10/23 02:06:18;;;;;;;4.07;0.63;;;;;;;;;;5122663;28;20057;-70
2023/10/23 02:08:45;;;;;;;1.70;0.30;;;;;;;;;;5122215;28;20106;-71
2023/10/23 02:11:12;;;;;;;2.80;0.47;;;;;;;;;;5122527;28;20127;-70
2023/10/23 02:13:38;;;;;;;6.63;0.60;;;;;;;;;;5122293;28;20063;-70
2023/10/23 02:16:05;;;;;;;2.10;0.60;;;;;;;;;;5122486;28;20050;-71
2023/10/23 02:18:32;;;;;;;2.42;0.50;;;;;;;;;;5122308;28;20051;-70
2023/10/23 02:21:00;;;;;;;6.53;1.30;;;;;;;;;;5122145;28;20081;-71
2023/10/23 02:23:26;;;;;;;4.35;0.60;;;;;;;;;;5121688;28;20078;-70
2023/10/23 02:25:59;;;;;;;3.47;0.60;;;;;;;;;;5122222;28;20100;-70
2023/10/23 02:28:26;;;;;;;4.60;0.60;;;;;;;;;;5122258;28;20081;-70
2023/10/23 02:30:54;;;;;;;5.60;1.10;;;;;;;;;;5122188;28;20268;-70
2023/10/23 02:33:21;;;;;;;3.90;1.02;;;;;;;;;;5121899;28;20070;-70
2023/10/23 02:35:48;;;;;;;2.75;0.50;;;;;;;;;;5122054;28;20419;-71
2023/10/23 02:38:14;;;;;;;6.22;0.82;;;;;;;;;;5121681;28;20335;-71
2023/10/23 02:40:50;;;;;;;3.40;0.60;;;;;;;;;;5121896;28;20227;-70
2023/10/23 02:43:16;;;;;;;4.20;1.08;;;;;;;;;;5121932;28;20082;-70
2023/10/23 02:45:43;;;;;;;4.63;0.80;;;;;;;;;;5122213;28;20050;-70
2023/10/23 02:48:10;;;;;;;2.58;0.47;;;;;;;;;;5121842;28;20050;-70
2023/10/23 02:50:36;;;;;;;2.10;0.70;;;;;;;;;;5120545;28;20051;-70
2023/10/23 02:53:05;;;;;;;2.75;0.50;;;;;;;;;;5112338;28;20103;-70
2023/10/23 02:55:32;;;;;;;5.30;0.70;;;;;;;;;;5083499;28;20124;-70
2023/10/23 02:58:00;;;;;;;3.25;0.60;;;;;;;;;;5101464;28;20075;-69
2023/10/23 03:00:30;;;;;;;4.55;0.93;;;;;;;;;;5101035;28;20055;-71
2023/10/23 03:02:56;;;;;;;5.38;0.80;;;;;;;;;;5101224;28;20058;-71
2023/10/23 03:05:24;;;;;;;1.23;0.60;;;;;;;;;;5101022;28;20043;-69
2023/10/23 03:07:51;;;;;;;3.90;0.70;;;;;;;;;;5101153;28;20075;-69
2023/10/23 03:10:17;;;;;;;3.80;0.70;;;;;;;;;;5100453;28;20097;-70
2023/10/23 03:12:44;;;;;;;5.03;0.70;;;;;;;;;;5100600;28;20097;-69
2023/10/23 03:15:11;;;;;;;2.80;0.73;;;;;;;;;;5100827;28;20089;-70
2023/10/23 03:17:38;;;;;;;2.50;0.70;;;;;;;;;;5100769;28;20105;-70
2023/10/23 03:20:06;;;;;;;4.78;0.73;;;;;;;;;;5100511;28;20044;-69
2023/10/23 03:22:33;;;;;;;2.78;0.45;;;;;;;;;;5100654;28;20052;-69
2023/10/23 03:24:59;;;;;;;4.75;0.73;;;;;;;;;;5099995;28;20089;-70
2023/10/23 03:27:26;;;;;;;4.75;0.80;;;;;;;;;;5100930;28;20089;-69
2023/10/23 03:29:53;;;;;;;2.53;0.77;;;;;;;;;;5100615;28;20214;-70
2023/10/23 03:32:19;;;;;;;2.58;0.68;;;;;;;;;;5100407;28;20043;-70
2023/10/23 03:34:46;;;;;;;5.75;0.73;;;;;;;;;;5100771;28;20139;-70
2023/10/23 03:37:13;;;;;;;4.43;0.63;;;;;;;;;;5100656;28;20107;-70
2023/10/23 03:39:39;;;;;;;2.22;0.52;;;;;;;;;;5100344;28;20083;-69
2023/10/23 03:42:06;;;;;;;10.20;0.88;;;;;;;;;;5082644;28;20044;-69
2023/10/23 03:44:33;;;;;;;2.85;0.55;;;;;;;;;;5099176;28;20075;-70
2023/10/23 03:47:00;;;;;;;3.63;0.70;;;;;;;;;;5100441;28;20081;-70
2023/10/23 03:49:30;;;;;;;4.45;0.77;;;;;;;;;;5100564;28;20090;-69
2023/10/23 03:51:57;;;;;;;0.98;0.45;;;;;;;;;;5100162;28;20249;-69
2023/10/23 03:54:24;;;;;;;2.60;0.77;;;;;;;;;;5099773;28;20107;-69
2023/10/23 03:56:50;;;;;;;3.45;0.60;;;;;;;;;;5100570;28;20044;-69
2023/10/23 03:59:17;;;;;;;2.08;0.60;;;;;;;;;;5100111;28;20052;-69
2023/10/23 04:01:44;;;;;;;3.40;0.60;;;;;;;;;;5100237;28;20130;-71
2023/10/23 04:04:10;;;;;;;3.90;0.68;;;;;;;;;;5096176;28;20528;-69
2023/10/23 04:06:40;;;;;;;5.57;0.80;;;;;;;;;;5100038;28;20209;-69
2023/10/23 04:09:07;;;;;;;4.50;0.77;;;;;;;;;;5099915;28;20044;-70
2023/10/23 04:11:34;;;;;;;3.38;0.50;;;;;;;;;;5100050;28;20040;-69
2023/10/23 04:14:00;;;;;;;5.22;0.68;;;;;;;;;;5099884;28;20107;-70
2023/10/23 04:16:27;;;;;;;3.35;0.80;;;;;;;;;;5099868;28;20351;-70
2023/10/23 04:18:54;;;;;;;2.50;0.52;;;;;;;;;;5100043;28;20325;-69
2023/10/23 04:21:20;;;;;;;8.35;0.63;;;;;;;;;;5099794;28;20044;-70
2023/10/23 04:23:47;;;;;;;3.83;0.70;;;;;;;;;;5099581;28;20119;-70
2023/10/23 04:26:14;;;;;;;2.85;0.75;;;;;;;;;;5099847;28;20066;-71
2023/10/23 04:28:41;;;;;;;1.65;0.45;;;;;;;;;;5100213;28;20052;-71
2023/10/23 04:31:08;;;;;;;4.40;0.75;;;;;;;;;;5100008;28;20044;-69
2023/10/23 04:33:34;;;;;;;2.90;1.13;;;;;;;;;;5099840;28;20044;-70
2023/10/23 04:36:02;;;;;;;3.70;0.52;;;;;;;;;;5100155;28;20107;-70
2023/10/23 04:38:31;;;;;;;3.05;0.70;;;;;;;;;;5099454;28;20369;-69
2023/10/23 04:40:58;;;;;;;5.82;0.80;;;;;;;;;;5099621;28;20043;-69
2023/10/23 04:43:24;;;;;;;7.43;0.73;;;;;;;;;;5100063;28;20051;-71
2023/10/23 04:45:55;;;;;;;3.63;0.70;;;;;;;;;;5099702;28;20048;-72
2023/10/23 04:48:21;;;;;;;;;;;;;;;;;;5113828;28;20334;-71
2023/10/23 04:50:48;;;;;;;3.95;0.80;;;;;;;;;;5120024;28;19915;-72
2023/10/23 04:53:15;;;;;;;2.75;0.52;;;;;;;;;;5118644;28;20088;-70
2023/10/23 04:55:41;;;;;;;4.75;0.77;;;;;;;;;;5120068;28;20091;-70
2023/10/23 04:58:09;;;;;;;4.25;0.70;;;;;;;;;;5120230;28;20079;-70
2023/10/23 05:00:39;;;;;;;2.53;0.80;;;;;;;;;;5118820;28;20389;-70
2023/10/23 05:03:06;;;;;;;7.00;1.10;;;;;;;;;;5120149;28;20059;-70
2023/10/23 05:05:33;;;;;;;2.85;0.70;;;;;;;;;;5119770;28;20253;-70
2023/10/23 05:08:00;;;;;;;6.00;0.80;;;;;;;;;;5119427;28;20055;-70
2023/10/23 05:10:27;;;;;;;4.18;0.90;;;;;;;;;;5120083;28;20089;-70
2023/10/23 05:12:53;;;;;;;7.68;0.90;;;;;;;;;;5121045;28;20265;-70
2023/10/23 05:15:20;;;;;;;2.55;0.63;;;;;;;;;;5123488;28;20044;-71
2023/10/23 05:17:47;;;;;;;8.50;0.85;;;;;;;;;;5123627;28;20054;-71
2023/10/23 05:20:14;;;;;;;3.35;0.50;;;;;;;;;;5123706;28;20101;-70
2023/10/23 05:22:41;;;;;;;6.45;0.98;;;;;;;;;;5123586;28;20054;-69
2023/10/23 05:25:11;;;;;;;3.75;0.95;;;;;;;;;;5123045;28;20334;-71
2023/10/23 05:27:38;;;;;;;3.67;0.77;;;;;;;;;;5123490;28;20051;-69
2023/10/23 05:30:06;;;;;;;9.85;1.20;;;;;;;;;;5123632;28;20598;-69
2023/10/23 05:32:40;;;;;;;4.85;0.70;;;;;;;;;;5123410;28;20096;-70
2023/10/23 05:35:07;;;;;;;7.60;1.05;;;;;;;;;;5123286;28;20047;-70
2023/10/23 05:37:34;;;;;;;6.40;1.00;;;;;;;;;;5123146;28;20044;-70
2023/10/23 05:40:04;;;;;;;6.07;1.33;;;;;;;;;;5122958;28;20044;-69
2023/10/23 05:42:31;;;;;;;5.72;1.10;;;;;;;;;;5123218;28;20111;-70
2023/10/23 05:44:59;;;;;;;6.28;1.10;;;;;;;;;;5122881;28;20043;-69
2023/10/23 05:47:26;;;;;;;7.97;1.30;;;;;;;;;;5123263;28;20163;-69
2023/10/23 05:49:53;;;;;;;7.35;1.08;;;;;;;;;;5122718;28;20043;-69
2023/10/23 05:52:19;;;;;;;5.60;1.00;;;;;;;;;;5122811;28;20404;-69
2023/10/23 05:54:46;;;;;;;4.43;1.10;;;;;;;;;;5122839;28;20044;-70
2023/10/23 05:57:13;;;;;;;9.88;1.30;;;;;;;;;;5122747;28;20043;-69
2023/10/23 05:59:40;;;;;;;12.38;0.98;;;;;;;;;;5121598;28;20106;-69
2023/10/23 06:02:06;;;;;;;6.00;1.27;;;;;;;;;;5122806;28;20043;-70
2023/10/23 06:04:33;;;;;;;6.70;1.58;;;;;;;;;;5122318;28;20224;-69
2023/10/23 06:07:00;;;;;;;5.25;1.13;;;;;;;;;;5121435;28;20103;-69
2023/10/23 06:09:28;;;;;;;5.30;1.30;;;;;;;;;;5122301;28;20259;-70
2023/10/23 06:11:55;;;;;;;9.38;1.48;;;;;;;;;;5122508;28;20043;-71
2023/10/23 06:14:22;;;;;;;9.57;1.63;;;;;;;;;;5122558;28;20361;-69
2023/10/23 06:16:49;;;;;;;6.80;1.25;;;;;;;;;;5122188;28;20458;-70
2023/10/23 06:19:18;;;;;;;9.63;1.30;;;;;;;;;;5122583;28;20059;-69
2023/10/23 06:21:45;;;;;;;8.52;1.23;;;;;;;;;;5121997;28;20350;-69
2023/10/23 06:24:12;;;;;;;12.48;2.00;;;;;;;;;;5114212;28;20045;-69
2023/10/23 06:26:38;;;;;;;8.10;1.08;;;;;;;;;;5114157;28;20051;-70
2023/10/23 06:29:09;;;;;;;;;;;;;;;;;;5105770;28;20071;-69
2023/10/23 06:31:35;;;;;;;8.35;1.60;;;;;;;;;;5102622;28;19992;-69
2023/10/23 06:34:02;;;;;;;9.27;1.70;;;;;;;;;;5122438;28;20064;-69
2023/10/23 06:36:32;;;;;;;5.88;1.00;;;;;;;;;;5121796;28;20282;-71
2023/10/23 06:38:59;;;;;;;8.32;1.20;;;;;;;;;;5121904;28;20183;-71
2023/10/23 06:41:26;;;;;;;13.02;1.52;;;;;;;;;;5109969;28;20059;-70
2023/10/23 06:43:53;;;;;;;12.70;1.90;;;;;;;;;;5101810;28;20048;-69
2023/10/23 06:46:19;;;;;;;12.02;1.33;;;;;;;;;;5101522;28;20048;-69
2023/10/23 06:48:46;;;;;;;9.82;1.52;;;;;;;;;;5101507;28;20044;-71
2023/10/23 06:51:16;;;;;;;7.03;1.58;;;;;;;;;;5115849;28;20138;-72
2023/10/23 06:53:43;;;;;;;11.10;1.55;;;;;;;;;;5119499;28;20095;-71
2023/10/23 06:56:09;;;;;;;12.82;1.60;;;;;;;;;;5121381;28;20140;-70
2023/10/23 06:58:36;;;;;;;11.73;1.50;;;;;;;;;;5121011;28;20350;-70
2023/10/23 07:01:09;;;;;;;7.43;1.40;;;;;;;;;;5121424;28;20059;-70
2023/10/23 07:03:36;;;;;;;13.23;1.60;;;;;;;;;;5111815;28;20047;-73
2023/10/23 07:06:05;;;;;;;8.48;1.48;;;;;;;;;;5104704;28;20040;-70
2023/10/23 07:08:32;;;;;;;10.75;1.50;;;;;;;;;;5120814;28;20075;-70
2023/10/23 07:10:59;;;;;;;12.68;1.73;;;;;;;;;;5120586;28;20326;-70
2023/10/23 07:13:26;;;;;;;8.90;1.40;;;;;;;;;;5119994;28;20075;-69
2023/10/23 07:15:53;;;;;;;12.00;1.85;;;;;;;;;;5120845;28;20332;-69
2023/10/23 07:18:21;;;;;;;12.57;1.70;;;;;;;;;;5119186;28;20051;-69
2023/10/23 07:20:56;;;;;;;7.22;1.48;;;;;;;;;;5120452;28;20089;-69
2023/10/23 07:23:23;;;;;;;11.85;1.90;;;;;;;;;;5102363;28;20382;-70
2023/10/23 07:26:07;;;;;;;14.38;1.70;;;;;;;;;;5120857;28;20081;-69
2023/10/23 07:28:40;;;;;;;18.38;1.40;;;;;;;;;;5120960;28;20114;-70
2023/10/23 07:31:08;;;;;;;12.60;1.80;;;;;;;;;;5121093;28;20434;-70
2023/10/23 07:33:36;;;;;;;11.32;1.60;;;;;;;;;;5115768;28;20089;-71
2023/10/23 07:36:05;;;;;;;8.98;1.70;;;;;;;;;;5108377;28;20040;-71
2023/10/23 07:38:32;;;;;;;9.32;1.50;;;;;;;;;;5114558;28;20048;-69
2023/10/23 07:40:59;;;;;;;10.75;1.80;;;;;;;;;;5120416;28;20114;-71
2023/10/23 07:43:26;;;;;;;10.85;1.70;;;;;;;;;;5100406;28;20422;-70
2023/10/23 07:45:59;;;;;;;;;;;;;;;;;;5100619;28;20050;-71
2023/10/23 07:48:40;;;;;;;12.70;1.77;;;;;;;;;;5084222;28;19924;-70
2023/10/23 07:51:07;;;;;;;9.52;1.67;;;;;;;;;;5112554;28;20044;-71
2023/10/23 07:53:35;;;;;;;11.95;1.95;;;;;;;;;;5119673;28;20043;-71
2023/10/23 07:56:05;;;;;;;13.63;1.80;;;;;;;;;;5102455;28;20043;-70
2023/10/23 07:58:33;;;;;;;11.82;1.40;;;;;;;;;;5120271;28;20047;-70
2023/10/23 08:01:07;;;;;;;8.82;1.83;;;;;;;;;;5120578;28;20044;-70
2023/10/23 08:03:35;;;;;;;6.38;1.73;;;;;;;;;;5120132;28;20416;-71
2023/10/23 08:06:07;;;;;;;15.10;1.85;;;;;;;;;;5120182;28;20328;-70
2023/10/23 08:08:35;;;;;;;7.10;1.40;;;;;;;;;;5098599;28;20051;-69
2023/10/23 08:11:03;;;;;;;4.78;1.20;;;;;;;;;;5099914;28;20442;-68
2023/10/23 08:13:31;;;;;;;3.67;1.10;;;;;;;;;;5099625;28;20374;-69
2023/10/23 08:15:57;;;;;;;6.20;1.00;;;;;;;;;;5099928;28;20135;-69
2023/10/23 08:18:26;;;;;;;5.55;1.35;;;;;;;;;;5099448;28;20082;-70
2023/10/23 08:21:15;;;;;;;3.13;0.90;;;;;;;;;;5099132;28;20051;-70
2023/10/23 08:23:44;;;;;;;5.47;1.00;;;;;;;;;;5098519;28;20676;-70
2023/10/23 08:26:11;;;;;;;5.20;1.40;;;;;;;;;;5098524;28;20063;-70
2023/10/23 08:28:39;;;;;;;2.85;0.95;;;;;;;;;;5098998;28;20209;-71
2023/10/23 08:31:08;;;;;;;5.00;0.88;;;;;;;;;;5099149;28;20376;-70
2023/10/23 08:33:56;;;;;;;3.10;0.80;;;;;;;;;;5110134;28;20081;-69
2023/10/23 08:36:23;;;;;;;4.45;0.90;;;;;;;;;;5102148;28;20051;-69
2023/10/23 08:38:49;;;;;;;3.17;1.02;;;;;;;;;;5120104;28;20078;-69
2023/10/23 08:41:16;;;;;;;3.42;0.77;;;;;;;;;;5112293;28;20040;-70
2023/10/23 08:43:43;;;;;;;4.25;0.90;;;;;;;;;;5099363;28;20050;-69
2023/10/23 08:46:10;;;;;;;4.13;0.90;;;;;;;;;;5095967;28;20337;-70
2023/10/23 08:48:37;;;;;;;4.07;1.00;;;;;;;;;;5101803;28;20423;-69
2023/10/23 08:51:07;;;;;;;2.97;1.08;;;;;;;;;;5121676;28;20044;-69
2023/10/23 08:53:40;;;;;;;6.05;1.20;;;;;;;;;;5123578;28;20048;-70
2023/10/23 08:56:10;;;;;;;2.58;0.90;;;;;;;;;;5123030;28;20291;-70
2023/10/23 08:58:38;;;;;;;2.85;0.90;;;;;;;;;;5123745;28;20062;-70
2023/10/23 09:01:04;;;;;;;4.30;1.02;;;;;;;;;;5124136;28;20081;-70
2023/10/23 09:03:32;;;;;;;3.88;1.10;;;;;;;;;;5123947;28;20043;-70
2023/10/23 09:06:19;;;;;;;4.45;1.10;;;;;;;;;;5120187;28;20085;-70
2023/10/23 09:08:46;;;;;;;3.80;0.80;;;;;;;;;;5102717;28;20048;-70
2023/10/23 09:11:13;;;;;;;2.17;0.98;;;;;;;;;;5115104;28;20393;-69
2023/10/23 09:13:41;;;;;;;3.33;1.20;;;;;;;;;;5122239;28;20078;-77
2023/10/23 09:16:10;;;;;;;2.97;0.65;;;;;;;;;;5123673;28;20039;-70
2023/10/23 09:18:51;;;;;;;21.83;2.50;;;;;;;;;;5122627;28;20120;-70
2023/10/23 09:21:18;;;;;;;17.00;2.10;;;;;;;;;;5122936;28;20320;-71
2023/10/23 09:23:53;;;;;;;6.50;1.30;;;;;;;;;;5122870;28;20071;-74
2023/10/23 09:26:24;;;;;;;25.80;2.03;;;;;;;;;;5122823;28;20256;-70
2023/10/23 09:28:54;;;;;;;16.88;2.25;;;;;;;;;;5123279;28;20047;-69
2023/10/23 09:31:21;;;;;;;10.90;2.30;;;;;;;;;;5121315;28;20081;-71
2023/10/23 09:33:50;;;;;;;11.65;1.90;;;;;;;;;;5120749;28;20039;-70
2023/10/23 09:36:17;;;;;;;13.60;1.55;;;;;;;;;;5123193;28;20146;-69
2023/10/23 09:38:59;;;;;;;16.85;2.40;;;;;;;;;;5122544;28;20050;-71
2023/10/23 09:41:28;;;;;;;13.63;1.60;;;;;;;;;;5122820;28;20047;-70
2023/10/23 09:43:56;;;;;;;40.72;2.30;;;;;;;;;;5122836;28;20047;-70
2023/10/23 09:46:28;;;;;;;5.43;1.50;;;;;;;;;;5122914;28;20047;-70
2023/10/23 09:48:59;;;;;;;7.38;1.42;;;;;;;;;;5104620;28;20347;-70
2023/10/23 09:51:29;;;;;;;3.95;0.98;;;;;;;;;;5104865;28;20048;-70
2023/10/23 09:54:00;;;;;;;2.90;1.08;;;;;;;;;;5122624;28;20044;-73
2023/10/23 09:56:33;;;;;;;4.50;1.30;;;;;;;;;;5122723;28;20088;-71
2023/10/23 09:59:06;;;;;;;7.00;1.23;;;;;;;;;;5116403;28;20628;-68
2023/10/23 10:01:42;;;;;;;4.72;1.65;;;;;;;;;;5122150;28;20055;-69
2023/10/23 10:04:24;;;;;;;3.10;1.33;;;;;;;;;;5122078;28;20059;-69
2023/10/23 10:07:04;;;;;;;4.10;1.52;;;;;;;;;;5122470;28;20054;-69
2023/10/23 10:09:32;;;;;;;4.88;1.33;;;;;;;;;;5107941;28;20044;-69
2023/10/23 10:11:59;;;;;;;3.85;1.60;;;;;;;;;;5117712;28;20036;-69
2023/10/23 10:14:27;;;;;;;5.72;1.90;;;;;;;;;;5101874;28;20052;-69
2023/10/23 10:16:57;;;;;;;5.47;1.92;;;;;;;;;;5111804;28;20056;-70
2023/10/23 10:19:27;;;;;;;4.20;1.88;;;;;;;;;;5122053;28;20339;-69
2023/10/23 10:22:06;;;;;;;4.67;1.90;;;;;;;;;;5113453;28;20048;-69
2023/10/23 10:24:34;;;;;;;5.25;1.95;;;;;;;;;;5120410;28;20067;-69
2023/10/23 10:27:05;;;;;;;3.85;1.70;;;;;;;;;;5122305;28;20062;-72
2023/10/23 10:29:33;;;;;;;3.25;1.77;;;;;;;;;;5100244;28;20602;-71
2023/10/23 10:32:09;;;;;;;3.10;1.73;;;;;;;;;;5101633;28;20115;-70
2023/10/23 10:34:44;;;;;;;2.58;1.52;;;;;;;;;;5101587;28;20044;-70
2023/10/23 10:37:14;;;;;;;3.53;1.80;;;;;;;;;;5101410;28;20044;-69
2023/10/23 10:39:46;;;;;;;2.97;1.80;;;;;;;;;;5099428;28;20328;-70
2023/10/23 10:42:17;;;;;;;5.00;1.70;;;;;;;;;;5111560;28;20048;-69
2023/10/23 10:45:15;;;;;;;4.93;1.80;;;;;;;;;;5094191;28;20055;-70
2023/10/23 10:47:52;;;;;;;2.80;1.58;;;;;;;;;;5097190;28;20040;-72
2023/10/23 10:50:36;;;;;;;4.63;1.80;;;;;;;;;;5102553;28;20107;-69
2023/10/23 10:53:05;;;;;;;3.65;1.50;;;;;;;;;;5115528;28;20047;-70
2023/10/23 10:55:34;;;;;;;3.00;1.50;;;;;;;;;;5111307;28;20130;-70
2023/10/23 10:58:02;;;;;;;2.90;1.60;;;;;;;;;;5110699;28;20047;-70
2023/10/23 11:00:31;;;;;;;1.95;1.27;;;;;;;;;;5114688;28;20243;-70
2023/10/23 11:02:58;;;;;;;4.35;1.60;;;;;;;;;;5121036;28;20048;-70
2023/10/23 11:05:25;;;;;;;4.03;1.70;;;;;;;;;;5103685;28;20052;-70
2023/10/23 11:07:52;;;;;;;3.50;1.40;;;;;;;;;;5121021;28;20047;-71
2023/10/23 11:10:20;;;;;;;2.47;1.27;;;;;;;;;;5120600;28;20108;-70
2023/10/23 11:12:48;;;;;;;4.88;1.30;;;;;;;;;;5117480;28;20439;-71
2023/10/23 11:15:15;;;;;;;3.70;1.45;;;;;;;;;;5121678;28;20043;-69
2023/10/23 11:17:43;;;;;;;2.80;1.48;;;;;;;;;;5119462;28;20044;-69
2023/10/23 11:20:12;;;;;;;2.28;1.20;;;;;;;;;;5116148;28;20047;-70
2023/10/23 11:22:47;;;;;;;4.05;1.60;;;;;;;;;;5110517;28;20043;-70
2023/10/23 11:25:15;;;;;;;2.33;1.50;;;;;;;;;;5111799;28;20047;-70
2023/10/23 11:27:42;;;;;;;8.43;1.40;;;;;;;;;;5091514;28;20079;-69
2023/10/23 11:30:09;;;;;;;3.63;1.48;;;;;;;;;;5109806;28;20051;-70
2023/10/23 11:32:39;;;;;;;8.63;1.60;;;;;;;;;;5091213;28;20044;-70
2023/10/23 11:35:06;;;;;;;;;;;;;;;;;;5110572;28;20130;-69
2023/10/23 11:37:40;;;;;;;3.60;1.25;;;;;;;;;;5108938;28;19934;-69
2023/10/23 11:40:08;;;;;;;2.67;1.17;;;;;;;;;;5109718;28;20130;-69
2023/10/23 11:42:42;;;;;;;1.85;1.20;;;;;;;;;;5109608;28;20050;-71
2023/10/23 11:45:09;;;;;;;1.95;1.20;;;;;;;;;;5110020;28;20054;-70
2023/10/23 11:47:39;;;;;;;2.45;1.25;;;;;;;;;;5108564;28;20594;-70
2023/10/23 11:50:08;;;;;;;3.28;1.05;;;;;;;;;;5108885;28;20089;-70
2023/10/23 11:52:34;;;;;;;2.28;1.10;;;;;;;;;;5090894;28;20047;-70
2023/10/23 11:55:04;;;;;;;3.88;1.00;;;;;;;;;;5108598;28;20422;-74
2023/10/23 11:57:33;;;;;;;2.30;1.13;;;;;;;;;;5109589;28;20553;-70
2023/10/23 12:00:10;;;;;;;3.30;1.20;;;;;;;;;;5109606;28;20052;-71
2023/10/23 12:02:41;;;;;;;4.43;1.02;;;;;;;;;;5091900;28;20132;-69
2023/10/23 12:05:13;;;;;;;5.60;1.02;;;;;;;;;;5108991;28;20047;-70
2023/10/23 12:07:46;;;;;;;4.72;1.10;;;;;;;;;;5108835;28;20062;-71
2023/10/23 12:10:15;;;;;;;2.83;0.93;;;;;;;;;;5108394;28;20136;-73
2023/10/23 12:12:42;;;;;;;2.75;0.77;;;;;;;;;;5108629;28;20044;-73
2023/10/23 12:15:11;;;;;;;1.75;0.75;;;;;;;;;;5108965;28;20048;-69
2023/10/23 12:17:38;;;;;;;1.35;0.68;;;;;;;;;;5108519;28;20129;-69
2023/10/23 12:20:08;;;;;;;1.92;0.50;;;;;;;;;;5108458;28;20054;-69
2023/10/23 12:22:44;;;;;;;1.27;0.70;;;;;;;;;;5111818;28;20124;-68
2023/10/23 12:25:13;;;;;;;0.85;0.50;;;;;;;;;;5114642;28;20054;-70
2023/10/23 12:27:40;;;;;;;0.82;0.55;;;;;;;;;;5113029;28;20090;-69
2023/10/23 12:30:10;;;;;;;0.70;0.40;;;;;;;;;;5102474;28;20052;-72
2023/10/23 12:32:47;;;;;;;0.60;0.50;;;;;;;;;;5104730;28;20368;-72
2023/10/23 12:35:34;;;;;;;0.80;0.60;;;;;;;;;;5114905;28;20079;-73
2023/10/23 12:38:01;;;;;;;0.82;0.52;;;;;;;;;;5099294;28;20040;-70
2023/10/23 12:40:28;;;;;;;1.27;0.50;;;;;;;;;;5093932;28;20043;-68
2023/10/23 12:43:00;;;;;;;1.25;0.60;;;;;;;;;;5096310;28;20251;-71
2023/10/23 12:45:27;;;;;;;0.75;0.50;;;;;;;;;;5102050;28;20043;-70
2023/10/23 12:47:54;;;;;;;2.00;0.70;;;;;;;;;;5114008;28;20096;-70
2023/10/23 12:50:20;;;;;;;0.65;0.50;;;;;;;;;;5113531;28;20044;-69
2023/10/23 12:52:47;;;;;;;2.15;0.77;;;;;;;;;;5113478;28;20048;-70
2023/10/23 12:55:15;;;;;;;1.98;0.65;;;;;;;;;;5112598;28;20043;-70
2023/10/23 12:57:42;;;;;;;1.85;0.80;;;;;;;;;;5114234;28;20533;-70
2023/10/23 13:00:09;;;;;;;1.77;0.70;;;;;;;;;;5120601;28;20047;-70
2023/10/23 13:02:36;;;;;;;3.47;0.75;;;;;;;;;;5116016;28;20110;-71
2023/10/23 13:05:05;;;;;;;0.73;0.50;;;;;;;;;;5116209;28;20081;-77
2023/10/23 13:07:32;;;;;;;0.98;0.50;;;;;;;;;;5121475;28;20280;-68
2023/10/23 13:09:58;;;;;;;2.63;0.65;;;;;;;;;;5123632;28;20048;-69
2023/10/23 13:12:25;;;;;;;1.65;0.70;;;;;;;;;;5120011;28;20480;-69
2023/10/23 13:14:53;;;;;;;2.55;0.60;;;;;;;;;;5119623;28;20063;-68
2023/10/23 13:17:19;;;;;;;1.05;0.70;;;;;;;;;;5120105;28;20164;-71
2023/10/23 13:19:47;;;;;;;2.63;0.60;;;;;;;;;;5118908;28;20334;-68
2023/10/23 13:22:17;;;;;;;2.95;0.60;;;;;;;;;;5119325;28;20189;-68
2023/10/23 13:24:44;;;;;;;1.75;0.68;;;;;;;;;;5119265;28;20063;-68
2023/10/23 13:27:13;;;;;;;1.30;0.70;;;;;;;;;;5119070;28;20082;-71
2023/10/23 13:29:42;;;;;;;0.60;0.60;;;;;;;;;;5120498;28;20067;-69
2023/10/23 13:32:08;;;;;;;1.33;0.63;;;;;;;;;;5122348;28;20071;-67
2023/10/23 13:34:37;;;;;;;0.88;0.63;;;;;;;;;;5122746;28;20044;-68
2023/10/23 13:37:04;;;;;;;1.58;0.60;;;;;;;;;;5123402;28;20043;-69
2023/10/23 13:39:32;;;;;;;1.10;0.70;;;;;;;;;;5123124;28;20051;-69
2023/10/23 13:41:59;;;;;;;0.90;0.70;;;;;;;;;;5123240;28;20043;-68
2023/10/23 13:44:25;;;;;;;0.77;0.68;;;;;;;;;;5123118;28;20102;-68
2023/10/23 13:46:52;;;;;;;1.45;0.90;;;;;;;;;;5122105;28;20059;-68
2023/10/23 13:49:19;;;;;;;1.48;0.52;;;;;;;;;;5117772;28;20126;-69
2023/10/23 13:51:46;;;;;;;1.02;0.68;;;;;;;;;;5120590;28;20050;-70
2023/10/23 13:54:12;;;;;;;1.60;0.60;;;;;;;;;;5111677;28;20048;-68
2023/10/23 13:56:39;;;;;;;1.30;0.50;;;;;;;;;;5116971;28;20047;-70
2023/10/23 13:59:05;;;;;;;0.80;0.60;;;;;;;;;;5112612;28;20102;-68
2023/10/23 14:01:32;;;;;;;0.80;0.57;;;;;;;;;;5122650;28;20081;-68
2023/10/23 14:03:59;;;;;;;1.08;0.63;;;;;;;;;;5122072;28;20335;-68
2023/10/23 14:06:27;;;;;;;2.97;0.60;;;;;;;;;;5102329;28;20058;-68
2023/10/23 14:08:54;;;;;;;1.27;0.63;;;;;;;;;;5101684;28;20044;-67
2023/10/23 14:11:40;;;;;;;0.93;0.65;;;;;;;;;;5102238;28;20149;-68
2023/10/23 14:14:28;;;;;;;3.78;0.90;;;;;;;;;;5105534;28;20039;-69
2023/10/23 14:16:58;;;;;;;1.63;0.70;;;;;;;;;;5122375;28;20077;-68
2023/10/23 14:19:27;;;;;;;1.25;0.65;;;;;;;;;;5122312;28;20043;-71
2023/10/23 14:22:12;;;;;;;1.15;0.68;;;;;;;;;;5122088;28;20043;-70
2023/10/23 14:24:39;;;;;;;1.17;0.70;;;;;;;;;;5122273;28;20043;-67
2023/10/23 14:27:07;;;;;;;2.72;0.60;;;;;;;;;;5122253;28;20047;-68
2023/10/23 14:29:33;;;;;;;1.02;0.52;;;;;;;;;;5121201;28;20393;-69
2023/10/23 14:32:00;;;;;;;1.98;0.63;;;;;;;;;;5122219;28;20044;-68
2023/10/23 14:34:27;;;;;;;0.68;0.52;;;;;;;;;;5122077;28;20156;-71
2023/10/23 14:36:55;;;;;;;0.88;0.50;;;;;;;;;;5114310;28;20047;-70
2023/10/23 14:39:26;;;;;;;3.00;0.50;;;;;;;;;;5109906;28;20047;-69
2023/10/23 14:41:53;;;;;;;1.67;0.52;;;;;;;;;;5111961;28;20141;-70
2023/10/23 14:44:19;;;;;;;0.93;0.57;;;;;;;;;;5111989;28;20497;-69
2023/10/23 14:46:48;;;;;;;0.70;0.40;;;;;;;;;;5093213;28;20257;-69
2023/10/23 14:49:16;;;;;;;1.58;0.50;;;;;;;;;;5112384;28;20043;-70
2023/10/23 14:51:46;;;;;;;0.80;0.50;;;;;;;;;;5110547;28;20100;-68